Time;durP1;ratioP1;P1;durP2;ratioP2;P2;SDS_P1;SDS_P2;PMS_P1;PMS_P2;Temp;Humidity;BMP_temperature;BMP_pressure;BME280_temperature;BME280_humidity;BME280_pressure;Samples;Min_cycle;Max_cycle;Signal;HPM_P1;HPM_P2
2021/04/29 00:00:54;;;;;;;20.95;18.77;;;25.30;68.50;;;;;;5020895;28;20026;-82
2021/04/29 00:03:24;;;;;;;21.25;19.08;;;25.50;65.50;;;;;;5018755;28;20030;-81
2021/04/29 00:05:51;;;;;;;20.05;17.95;;;25.40;66.10;;;;;;5016354;28;20053;-84
2021/04/29 00:08:20;;;;;;;21.63;19.40;;;25.70;65.40;;;;;;5016184;28;20041;-85
2021/04/29 00:10:48;;;;;;;21.80;19.38;;;25.50;66.50;;;;;;5008244;28;20045;-81
2021/04/29 00:13:16;;;;;;;22.27;19.90;;;25.80;64.90;;;;;;5010897;28;20037;-79
2021/04/29 00:15:44;;;;;;;21.35;19.15;;;25.20;64.80;;;;;;5008775;28;20176;-81
2021/04/29 00:18:12;;;;;;;22.73;20.42;;;24.90;67.10;;;;;;5004723;28;20022;-84
2021/04/29 00:20:39;;;;;;;23.88;21.50;;;25.50;66.40;;;;;;5021828;28;20030;-83
2021/04/29 00:23:07;;;;;;;26.17;22.40;;;25.40;65.80;;;;;;5024407;28;20018;-87
2021/04/29 00:25:34;;;;;;;22.88;20.58;;;25.40;66.00;;;;;;5031089;28;20040;-85
2021/04/29 00:28:02;;;;;;;21.88;19.77;;;25.70;66.70;;;;;;5019102;28;20105;-86
2021/04/29 00:30:29;;;;;;;21.02;19.02;;;26.40;64.00;;;;;;5012777;28;20036;-81
2021/04/29 00:32:57;;;;;;;23.15;18.38;;;26.90;63.50;;;;;;5019328;28;20036;-86
2021/04/29 00:35:24;;;;;;;17.67;14.93;;;27.20;63.30;;;;;;5015497;28;20542;-85
2021/04/29 00:37:52;;;;;;;15.15;13.60;;;27.30;60.20;;;;;;5013028;28;20129;-86
2021/04/29 00:40:19;;;;;;;18.15;16.48;;;26.90;63.80;;;;;;5009257;28;20033;-86
2021/04/29 00:42:46;;;;;;;16.95;15.15;;;26.70;61.60;;;;;;5011016;28;20125;-85
2021/04/29 00:45:16;;;;;;;17.60;13.85;;;26.00;63.10;;;;;;5008244;28;20030;-84
2021/04/29 00:47:48;;;;;;;18.42;15.05;;;26.20;63.80;;;;;;4984306;28;20045;-82
2021/04/29 00:50:16;;;;;;;16.63;14.93;;;26.70;64.30;;;;;;5006221;28;20026;-80
2021/04/29 00:52:43;;;;;;;25.42;14.93;;;27.30;63.10;;;;;;5009859;28;20026;-83
2021/04/29 00:55:11;;;;;;;13.73;12.43;;;27.70;62.80;;;;;;5006148;28;20096;-80
2021/04/29 00:57:38;;;;;;;13.35;11.77;;;27.60;59.70;;;;;;5008258;28;20030;-81
2021/04/29 01:00:08;;;;;;;14.05;12.60;;;27.30;59.90;;;;;;5005641;28;20040;-82
2021/04/29 01:02:38;;;;;;;14.23;11.45;;;27.10;61.60;;;;;;5005427;28;20030;-80
2021/04/29 01:05:09;;;;;;;14.55;11.88;;;27.50;63.50;;;;;;5002117;28;20033;-84
2021/04/29 01:07:44;;;;;;;10.45;9.48;;;27.00;62.20;;;;;;5012733;28;20476;-83
2021/04/29 01:10:40;;;;;;;11.55;9.40;;;27.40;61.30;;;;;;5010928;28;20480;-83
2021/04/29 01:13:10;;;;;;;13.07;9.32;;;27.50;58.30;;;;;;5003106;28;20084;-79
2021/04/29 01:15:49;;;;;;;10.10;9.20;;;27.60;58.60;;;;;;5007863;28;20104;-81
2021/04/29 01:18:19;;;;;;;9.65;8.65;;;28.00;59.30;;;;;;5005437;28;20026;-77
2021/04/29 01:21:07;;;;;;;11.02;9.60;;;28.40;59.80;;;;;;5005667;28;20033;-80
2021/04/29 01:23:46;;;;;;;11.68;7.88;;;28.10;58.50;;;;;;5007174;28;20038;-80
2021/04/29 01:26:32;;;;;;;8.30;6.72;;;28.10;58.10;;;;;;5005621;28;20445;-80
2021/04/29 01:29:01;;;;;;;;;;;27.80;57.20;;;;;;5022291;28;20070;-82
2021/04/29 01:31:34;;;;;;;6.97;5.75;;;28.00;57.90;;;;;;5006600;28;19917;-79
2021/04/29 01:34:04;;;;;;;6.85;5.13;;;28.00;56.70;;;;;;5012831;28;20042;-81
2021/04/29 01:36:34;;;;;;;8.02;5.57;;;28.20;55.70;;;;;;5010181;28;20026;-80
2021/04/29 01:39:04;;;;;;;6.00;5.38;;;27.70;56.10;;;;;;5012700;28;20384;-81
2021/04/29 01:41:33;;;;;;;7.63;4.93;;;28.00;54.90;;;;;;5009825;28;20029;-81
2021/04/29 01:44:00;;;;;;;6.45;5.20;;;27.60;58.70;;;;;;5010399;28;20029;-81
2021/04/29 01:46:28;;;;;;;10.48;4.75;;;27.10;56.90;;;;;;5014093;28;20021;-83
2021/04/29 01:48:56;;;;;;;5.38;4.65;;;27.10;57.90;;;;;;5010299;28;20030;-80
2021/04/29 01:51:24;;;;;;;7.18;4.40;;;27.20;56.90;;;;;;5011905;28;20018;-81
2021/04/29 01:53:53;;;;;;;3.72;3.42;;;27.30;58.00;;;;;;5008705;28;20124;-81
2021/04/29 01:56:21;;;;;;;6.93;3.90;;;27.60;54.00;;;;;;5005985;28;20217;-81
2021/04/29 01:58:48;;;;;;;5.68;4.10;;;27.50;56.30;;;;;;5008630;28;20037;-80
2021/04/29 02:01:16;;;;;;;6.13;3.53;;;27.90;55.30;;;;;;5024615;28;20163;-81
2021/04/29 02:03:44;;;;;;;6.85;3.22;;;27.90;52.90;;;;;;5011096;28;20029;-81
2021/04/29 02:06:12;;;;;;;6.95;3.30;;;27.70;52.90;;;;;;5009947;28;20113;-80
2021/04/29 02:08:40;;;;;;;5.07;4.57;;;27.30;53.50;;;;;;5005953;28;20118;-80
2021/04/29 02:11:10;;;;;;;5.00;3.38;;;27.50;55.10;;;;;;5008190;28;20072;-79
2021/04/29 02:13:39;;;;;;;7.10;4.18;;;27.80;56.00;;;;;;5007070;28;20069;-79
2021/04/29 02:16:22;;;;;;;7.70;4.90;;;27.70;52.80;;;;;;5010288;28;20046;-81
2021/04/29 02:18:51;;;;;;;5.07;4.57;;;27.70;52.30;;;;;;5008245;28;20029;-80
2021/04/29 02:21:20;;;;;;;5.82;4.80;;;28.20;52.70;;;;;;5005764;28;20025;-78
2021/04/29 02:23:50;;;;;;;6.85;4.93;;;28.10;51.40;;;;;;5011078;28;20026;-80
2021/04/29 02:26:22;;;;;;;6.70;5.22;;;28.10;52.20;;;;;;5010427;28;20022;-77
2021/04/29 02:28:50;;;;;;;5.93;4.90;;;27.60;51.10;;;;;;5008308;28;20073;-78
2021/04/29 02:31:18;;;;;;;7.93;5.20;;;27.80;54.00;;;;;;5010152;28;20097;-82
2021/04/29 02:33:46;;;;;;;6.50;5.18;;;27.40;51.10;;;;;;5010287;28;20038;-80
2021/04/29 02:36:14;;;;;;;6.53;5.93;;;27.30;54.20;;;;;;5007297;28;20476;-77
2021/04/29 02:38:43;;;;;;;6.03;5.43;;;27.10;53.10;;;;;;5006829;28;20030;-79
2021/04/29 02:41:11;;;;;;;6.53;5.93;;;27.30;53.00;;;;;;5006230;28;20026;-81
2021/04/29 02:43:39;;;;;;;7.13;5.40;;;27.30;52.60;;;;;;5004806;28;20034;-81
2021/04/29 02:46:06;;;;;;;8.43;7.72;;;27.60;52.50;;;;;;4979942;28;20037;-79
2021/04/29 02:48:35;;;;;;;8.75;6.03;;;27.90;51.90;;;;;;5002063;28;20037;-82
2021/04/29 02:51:04;;;;;;;6.97;5.65;;;28.00;52.50;;;;;;5004314;28;20022;-80
2021/04/29 02:53:32;;;;;;;7.10;6.07;;;28.10;47.90;;;;;;5005695;28;20037;-82
2021/04/29 02:55:59;;;;;;;5.82;5.25;;;27.90;49.00;;;;;;5004605;28;20300;-80
2021/04/29 02:58:27;;;;;;;6.30;5.13;;;28.00;50.70;;;;;;5017897;28;20025;-83
2021/04/29 03:00:58;;;;;;;13.90;6.60;;;28.50;51.10;;;;;;5015452;28;20060;-81
2021/04/29 03:03:26;;;;;;;5.60;4.90;;;28.40;48.70;;;;;;5019091;28;20033;-81
2021/04/29 03:05:55;;;;;;;7.20;5.38;;;28.60;50.90;;;;;;5013695;28;20176;-81
2021/04/29 03:08:23;;;;;;;6.35;5.10;;;28.50;48.00;;;;;;5003718;28;20094;-82
2021/04/29 03:10:50;;;;;;;6.15;4.53;;;28.20;48.90;;;;;;5018800;28;20040;-81
2021/04/29 03:13:18;;;;;;;5.10;4.53;;;28.00;48.50;;;;;;5016200;28;20381;-83
2021/04/29 03:15:45;;;;;;;6.30;3.38;;;27.80;46.70;;;;;;5019807;28;20056;-83
2021/04/29 03:18:16;;;;;;;7.05;4.93;;;28.20;52.20;;;;;;5029024;28;20028;-84
2021/04/29 03:20:43;;;;;;;4.90;4.20;;;28.30;48.60;;;;;;5003671;28;20037;-84
2021/04/29 03:23:11;;;;;;;7.63;4.22;;;28.40;51.00;;;;;;5008408;28;20397;-83
2021/04/29 03:25:39;;;;;;;7.80;4.85;;;28.50;48.90;;;;;;4999861;28;20473;-82
2021/04/29 03:28:06;;;;;;;6.32;4.85;;;28.10;48.70;;;;;;5005507;28;20033;-81
2021/04/29 03:30:34;;;;;;;7.75;4.78;;;27.80;48.70;;;;;;5001867;28;20080;-83
2021/04/29 03:33:01;;;;;;;4.65;4.15;;;27.40;54.40;;;;;;5001525;28;20030;-81
2021/04/29 03:35:29;;;;;;;5.03;4.53;;;27.60;52.30;;;;;;5004228;28;20045;-79
2021/04/29 03:37:56;;;;;;;5.70;4.25;;;27.70;51.80;;;;;;5004296;28;20060;-82
2021/04/29 03:40:24;;;;;;;7.38;4.93;;;27.20;50.60;;;;;;5001767;28;20033;-81
2021/04/29 03:42:51;;;;;;;8.35;5.18;;;26.90;51.60;;;;;;5010194;28;20026;-80
2021/04/29 03:45:19;;;;;;;6.07;5.30;;;26.60;52.40;;;;;;5002382;28;20026;-82
2021/04/29 03:47:46;;;;;;;7.75;6.47;;;26.40;51.90;;;;;;5004006;28;20104;-80
2021/04/29 03:50:14;;;;;;;8.60;7.72;;;26.40;51.30;;;;;;5005615;28;20057;-82
2021/04/29 03:52:42;;;;;;;13.48;11.20;;;26.30;51.00;;;;;;5004261;28;20034;-80
2021/04/29 03:55:10;;;;;;;15.77;14.10;;;26.10;50.90;;;;;;5003333;28;20038;-81
2021/04/29 03:57:39;;;;;;;15.63;11.85;;;25.90;52.10;;;;;;5008820;28;20021;-83
2021/04/29 04:00:08;;;;;;;17.60;15.55;;;25.80;51.00;;;;;;5004308;28;20040;-80
2021/04/29 04:02:36;;;;;;;19.80;16.48;;;26.00;51.00;;;;;;5017365;28;20030;-81
2021/04/29 04:05:05;;;;;;;20.25;17.33;;;26.20;50.80;;;;;;5004289;28;20503;-79
2021/04/29 04:07:33;;;;;;;18.75;16.75;;;26.40;50.60;;;;;;5003766;28;20033;-81
2021/04/29 04:10:01;;;;;;;24.30;18.42;;;26.30;50.30;;;;;;5002000;28;20033;-81
2021/04/29 04:12:29;;;;;;;19.95;17.63;;;26.40;50.50;;;;;;5020440;28;20029;-81
2021/04/29 04:14:56;;;;;;;17.63;15.80;;;26.30;49.60;;;;;;5002294;28;20480;-85
2021/04/29 04:17:23;;;;;;;17.98;15.45;;;26.30;49.10;;;;;;5005047;28;20065;-82
2021/04/29 04:19:51;;;;;;;19.35;17.35;;;26.30;48.70;;;;;;5005792;28;20109;-81
2021/04/29 04:22:18;;;;;;;27.08;23.83;;;26.20;49.60;;;;;;5001614;28;20053;-81
2021/04/29 04:24:46;;;;;;;24.88;22.00;;;26.10;51.80;;;;;;5001285;28;20104;-80
2021/04/29 04:27:13;;;;;;;25.63;22.92;;;25.90;52.10;;;;;;4999273;28;20037;-77
2021/04/29 04:29:41;;;;;;;24.67;21.88;;;26.00;52.00;;;;;;5004721;28;20527;-82
2021/04/29 04:32:08;;;;;;;26.90;24.10;;;25.70;52.50;;;;;;5005987;28;20037;-83
2021/04/29 04:34:36;;;;;;;27.65;24.80;;;25.50;53.20;;;;;;4998486;28;20073;-79
2021/04/29 04:37:03;;;;;;;25.23;22.63;;;25.30;53.80;;;;;;5000299;28;20091;-80
2021/04/29 04:39:31;;;;;;;26.13;22.80;;;25.40;56.00;;;;;;5000297;28;20060;-77
2021/04/29 04:41:58;;;;;;;25.35;22.67;;;25.30;53.80;;;;;;5009256;28;20405;-78
2021/04/29 04:44:26;;;;;;;23.63;21.13;;;25.10;53.80;;;;;;5003624;28;20030;-79
2021/04/29 04:46:53;;;;;;;26.17;20.55;;;25.20;54.90;;;;;;5001580;28;20054;-79
2021/04/29 04:49:20;;;;;;;23.80;21.45;;;25.20;55.20;;;;;;5005930;28;20033;-79
2021/04/29 04:51:48;;;;;;;23.35;20.88;;;25.20;55.10;;;;;;5003365;28;20140;-83
2021/04/29 04:54:19;;;;;;;26.88;23.30;;;25.10;55.10;;;;;;5003611;28;20048;-78
2021/04/29 04:56:46;;;;;;;25.77;23.13;;;24.90;55.00;;;;;;5002393;28;20033;-79
2021/04/29 04:59:14;;;;;;;24.13;21.60;;;24.80;56.10;;;;;;5001343;28;20125;-78
2021/04/29 05:01:42;;;;;;;23.23;20.73;;;24.70;56.70;;;;;;5001764;28;20025;-80
2021/04/29 05:04:09;;;;;;;24.08;21.17;;;24.60;57.10;;;;;;5002092;28;20148;-85
2021/04/29 05:06:37;;;;;;;23.10;20.67;;;24.60;56.80;;;;;;5008454;28;20022;-82
2021/04/29 05:09:06;;;;;;;24.92;20.30;;;24.50;56.80;;;;;;5009444;28;20159;-87
2021/04/29 05:11:34;;;;;;;22.30;19.23;;;24.40;57.90;;;;;;5012777;28;20036;-88
2021/04/29 05:14:01;;;;;;;23.85;21.23;;;24.40;57.50;;;;;;5010416;28;20563;-82
2021/04/29 05:16:28;;;;;;;22.98;20.48;;;24.20;58.20;;;;;;5008429;28;20053;-84
2021/04/29 05:18:56;;;;;;;25.15;22.55;;;24.30;58.30;;;;;;5007583;28;20405;-81
2021/04/29 05:21:23;;;;;;;23.42;20.15;;;24.30;58.60;;;;;;5005838;28;20033;-82
2021/04/29 05:23:51;;;;;;;25.67;20.27;;;24.40;59.40;;;;;;5005294;28;20472;-79
2021/04/29 05:26:18;;;;;;;29.20;24.38;;;24.50;58.00;;;;;;5007135;28;20026;-82
2021/04/29 05:28:45;;;;;;;27.75;24.13;;;24.50;58.00;;;;;;5003650;28;20404;-81
2021/04/29 05:31:13;;;;;;;26.10;23.15;;;24.70;58.30;;;;;;5002407;28;20048;-83
2021/04/29 05:33:40;;;;;;;28.02;24.40;;;24.70;58.10;;;;;;5004925;28;20057;-82
2021/04/29 05:36:08;;;;;;;28.88;25.10;;;24.90;57.60;;;;;;5003994;28;20034;-81
2021/04/29 05:38:38;;;;;;;29.52;25.80;;;24.90;57.90;;;;;;5004994;28;20037;-82
2021/04/29 05:41:06;;;;;;;34.13;26.30;;;25.00;57.70;;;;;;5004678;28;20164;-82
2021/04/29 05:43:33;;;;;;;31.70;25.63;;;24.90;57.90;;;;;;5007797;28;20113;-82
2021/04/29 05:46:01;;;;;;;27.38;24.20;;;24.80;58.60;;;;;;5007949;28;20030;-85
2021/04/29 05:48:29;;;;;;;24.23;20.58;;;24.90;58.00;;;;;;5004862;28;20052;-81
2021/04/29 05:50:58;;;;;;;15.93;12.82;;;24.90;58.80;;;;;;5014668;28;20404;-81
2021/04/29 05:53:26;;;;;;;8.27;7.35;;;24.90;58.80;;;;;;5010650;28;20049;-81
2021/04/29 05:55:54;;;;;;;8.88;7.30;;;24.80;58.60;;;;;;5014336;28;20022;-82
2021/04/29 05:58:21;;;;;;;8.98;8.07;;;24.60;59.10;;;;;;5011199;28;20057;-81
2021/04/29 06:00:49;;;;;;;12.20;7.72;;;24.60;59.70;;;;;;5006011;28;20501;-86
2021/04/29 06:03:17;;;;;;;7.75;6.90;;;24.60;59.40;;;;;;5007422;28;20037;-82
2021/04/29 06:05:44;;;;;;;9.63;7.50;;;24.60;59.40;;;;;;5011316;28;20030;-83
2021/04/29 06:08:11;;;;;;;9.13;8.23;;;24.70;58.40;;;;;;5015668;28;20080;-80
2021/04/29 06:10:39;;;;;;;9.13;7.20;;;24.60;58.80;;;;;;5013818;28;20026;-80
2021/04/29 06:13:09;;;;;;;8.20;7.05;;;24.70;58.50;;;;;;5010264;28;20037;-83
2021/04/29 06:15:36;;;;;;;8.13;7.18;;;24.60;58.50;;;;;;5009147;28;20076;-85
2021/04/29 06:18:11;;;;;;;11.55;10.35;;;24.50;59.30;;;;;;5009561;28;20020;-88
2021/04/29 06:20:40;;;;;;;11.98;9.43;;;24.20;61.20;;;;;;5007468;28;20030;-87
2021/04/29 06:23:18;;;;;;;11.63;7.97;;;24.10;61.30;;;;;;5005517;28;20030;-87
2021/04/29 06:25:46;;;;;;;15.98;10.10;;;24.10;60.90;;;;;;5008537;28;20188;-86
2021/04/29 06:28:13;;;;;;;16.88;11.48;;;23.90;62.10;;;;;;5006493;28;20026;-84
2021/04/29 06:30:43;;;;;;;10.20;7.85;;;23.90;62.60;;;;;;5004119;28;20109;-85
2021/04/29 06:33:10;;;;;;;11.30;7.95;;;23.70;62.40;;;;;;5005746;28;20026;-84
2021/04/29 06:35:38;;;;;;;9.55;6.20;;;23.60;61.90;;;;;;5001030;28;20050;-82
2021/04/29 06:38:05;;;;;;;5.88;5.25;;;23.40;60.90;;;;;;5009853;28;20065;-82
2021/04/29 06:40:33;;;;;;;6.43;5.65;;;23.40;60.50;;;;;;5004259;28;20599;-82
2021/04/29 06:43:01;;;;;;;8.50;4.95;;;23.30;60.70;;;;;;5009446;28;20112;-85
2021/04/29 06:45:29;;;;;;;8.10;5.10;;;23.10;61.10;;;;;;5024820;28;20010;-84
2021/04/29 06:48:07;;;;;;;5.38;4.85;;;23.00;61.40;;;;;;5033625;28;20030;-84
2021/04/29 06:50:38;;;;;;;6.03;5.00;;;23.00;61.00;;;;;;5016024;28;20030;-83
2021/04/29 06:53:05;;;;;;;8.27;5.82;;;22.90;60.90;;;;;;5012541;28;20067;-81
2021/04/29 06:55:33;;;;;;;7.93;6.38;;;22.80;61.40;;;;;;5003373;28;20446;-81
2021/04/29 06:58:00;;;;;;;9.45;6.50;;;22.70;61.60;;;;;;5004737;28;20029;-80
2021/04/29 07:00:28;;;;;;;7.25;6.22;;;22.60;62.20;;;;;;5002553;28;20018;-82
2021/04/29 07:02:56;;;;;;;7.47;5.63;;;22.60;63.30;;;;;;5006026;28;20030;-82
2021/04/29 07:05:24;;;;;;;8.82;6.63;;;22.50;62.90;;;;;;5004757;28;20488;-79
2021/04/29 07:07:52;;;;;;;7.90;7.10;;;22.40;63.00;;;;;;5005520;28;20033;-81
2021/04/29 07:10:21;;;;;;;9.25;6.68;;;22.20;64.50;;;;;;5004602;28;20026;-80
2021/04/29 07:12:48;;;;;;;8.65;6.57;;;22.00;65.60;;;;;;5004972;28;20088;-80
2021/04/29 07:15:16;;;;;;;13.57;7.45;;;22.00;65.40;;;;;;5004787;28;20033;-81
2021/04/29 07:17:47;;;;;;;11.85;9.15;;;21.90;67.00;;;;;;5011357;28;20450;-81
2021/04/29 07:20:15;;;;;;;18.27;8.65;;;21.80;69.00;;;;;;5016720;28;20025;-86
2021/04/29 07:22:43;;;;;;;9.30;7.88;;;21.70;70.20;;;;;;5019738;28;20022;-84
2021/04/29 07:25:12;;;;;;;23.48;10.45;;;21.60;71.40;;;;;;5014028;28;20018;-86
2021/04/29 07:27:39;;;;;;;15.07;10.88;;;21.50;72.80;;;;;;5021342;28;20117;-84
2021/04/29 07:30:09;;;;;;;22.08;11.43;;;21.50;73.70;;;;;;5020393;28;20033;-84
2021/04/29 07:32:38;;;;;;;26.92;12.57;;;21.40;74.80;;;;;;5011387;28;20025;-84
2021/04/29 07:35:06;;;;;;;20.10;12.60;;;21.40;75.90;;;;;;5015876;28;20049;-86
2021/04/29 07:37:33;;;;;;;19.05;12.25;;;21.20;76.80;;;;;;5018207;28;20026;-86
2021/04/29 07:40:03;;;;;;;18.27;12.02;;;21.10;78.00;;;;;;5017685;28;20025;-84
2021/04/29 07:42:31;;;;;;;15.88;12.45;;;21.00;79.00;;;;;;5015555;28;20365;-84
2021/04/29 07:44:59;;;;;;;14.20;12.00;;;20.90;79.60;;;;;;5016579;28;20113;-84
2021/04/29 07:47:29;;;;;;;15.45;13.75;;;20.80;80.20;;;;;;5016619;28;20026;-88
2021/04/29 07:50:08;;;;;;;13.93;11.18;;;20.80;80.80;;;;;;5099780;27;20469;-85
2021/04/29 07:52:36;;;;;;;15.95;12.18;;;20.70;81.50;;;;;;5093790;28;20425;-83
2021/04/29 07:55:08;;;;;;;15.32;11.13;;;20.60;82.20;;;;;;5095635;28;20065;-82
2021/04/29 07:57:37;;;;;;;16.20;10.15;;;20.40;83.00;;;;;;5094106;28;20084;-86
2021/04/29 08:00:08;;;;;;;18.58;10.00;;;20.50;83.20;;;;;;5102771;28;20094;-85
2021/04/29 08:02:37;;;;;;;17.63;9.13;;;20.40;83.40;;;;;;5097298;28;20024;-86
2021/04/29 08:05:08;;;;;;;11.27;9.32;;;20.30;83.60;;;;;;5099799;28;20025;-85
2021/04/29 08:07:36;;;;;;;12.77;11.48;;;20.30;84.00;;;;;;5100141;28;20035;-84
2021/04/29 08:10:08;;;;;;;16.75;12.73;;;20.20;84.50;;;;;;5094884;28;20032;-83
2021/04/29 08:12:42;;;;;;;16.83;13.43;;;20.20;84.80;;;;;;5094214;28;20536;-85
2021/04/29 08:15:10;;;;;;;18.45;11.43;;;20.10;85.10;;;;;;5095099;28;20035;-85
2021/04/29 08:17:43;;;;;;;15.32;10.50;;;20.00;85.60;;;;;;5097698;28;20082;-85
2021/04/29 08:20:12;;;;;;;16.08;9.35;;;19.90;85.70;;;;;;5097075;28;20102;-85
2021/04/29 08:22:40;;;;;;;13.60;10.40;;;19.80;85.90;;;;;;5097439;28;20120;-85
2021/04/29 08:25:09;;;;;;;18.50;13.27;;;19.90;86.10;;;;;;5093610;28;20044;-83
2021/04/29 08:27:40;;;;;;;19.63;16.27;;;19.80;86.50;;;;;;5108091;28;20099;-85
2021/04/29 08:30:12;;;;;;;28.80;21.30;;;19.70;86.90;;;;;;5101235;28;20025;-85
2021/04/29 08:32:48;;;;;;;27.73;20.90;;;19.60;87.50;;;;;;5110374;28;20016;-84
2021/04/29 08:35:15;;;;;;;;;;;19.60;87.70;;;;;;5088377;28;20035;-86
2021/04/29 08:37:45;;;;;;;27.10;21.70;;;19.50;87.80;;;;;;5093088;28;19915;-84
2021/04/29 08:40:21;;;;;;;26.27;19.63;;;19.50;88.00;;;;;;5099819;28;20434;-88
2021/04/29 08:42:53;;;;;;;21.58;17.15;;;19.40;87.40;;;;;;5104415;28;20035;-84
2021/04/29 08:45:22;;;;;;;24.13;17.25;;;19.40;87.60;;;;;;5099677;28;20024;-85
2021/04/29 08:47:57;;;;;;;22.83;18.48;;;19.30;88.10;;;;;;5099550;28;20023;-86
2021/04/29 08:50:27;;;;;;;19.85;17.63;;;19.30;88.50;;;;;;5102175;28;20053;-81
2021/04/29 08:52:54;;;;;;;23.13;19.67;;;19.20;88.70;;;;;;5101040;28;20012;-86
2021/04/29 08:55:26;;;;;;;22.05;19.55;;;19.20;89.10;;;;;;5101897;28;20031;-83
2021/04/29 08:57:55;;;;;;;24.00;20.42;;;19.10;88.90;;;;;;5100086;28;20025;-84
2021/04/29 09:00:25;;;;;;;22.88;20.38;;;19.00;89.80;;;;;;5087988;28;20046;-85
2021/04/29 09:02:56;;;;;;;24.30;21.67;;;19.10;89.40;;;;;;5078464;28;20087;-81
2021/04/29 09:05:29;;;;;;;26.00;22.48;;;19.00;89.50;;;;;;5083855;28;20032;-82
2021/04/29 09:07:57;;;;;;;30.83;22.60;;;18.90;90.00;;;;;;5081960;28;20044;-84
2021/04/29 09:10:42;;;;;;;25.63;22.08;;;18.90;90.00;;;;;;5074270;28;20071;-82
2021/04/29 09:13:24;;;;;;;28.00;21.55;;;18.90;90.00;;;;;;5071229;28;20020;-83
2021/04/29 09:15:52;;;;;;;26.42;20.80;;;18.80;89.80;;;;;;5073765;28;20499;-81
2021/04/29 09:18:21;;;;;;;22.17;20.00;;;18.80;90.00;;;;;;5079945;28;20035;-83
2021/04/29 09:20:57;;;;;;;28.75;20.88;;;18.70;90.10;;;;;;5076698;28;20024;-82
2021/04/29 09:23:27;;;;;;;24.42;20.45;;;18.70;90.20;;;;;;5074405;28;20322;-83
2021/04/29 09:26:04;;;;;;;21.17;19.00;;;18.60;90.30;;;;;;5073725;28;20120;-83
2021/04/29 09:28:40;;;;;;;22.20;19.80;;;18.60;90.30;;;;;;5072140;28;20038;-83
2021/04/29 09:31:17;;;;;;;22.98;20.55;;;18.60;90.30;;;;;;5075736;28;20032;-81
2021/04/29 09:33:56;;;;;;;21.67;18.73;;;18.50;90.30;;;;;;5080263;28;20028;-83
2021/04/29 09:36:29;;;;;;;19.92;17.80;;;18.40;90.50;;;;;;5073660;28;20109;-82
2021/04/29 09:39:05;;;;;;;21.83;18.23;;;18.30;90.40;;;;;;5080857;28;20032;-83
2021/04/29 09:41:34;;;;;;;21.00;18.27;;;18.30;90.50;;;;;;5072075;28;20150;-83
2021/04/29 09:44:09;;;;;;;25.08;19.20;;;18.30;90.60;;;;;;5084180;28;20036;-84
2021/04/29 09:46:41;;;;;;;22.23;19.73;;;18.20;90.70;;;;;;5073394;28;20020;-81
2021/04/29 09:49:34;;;;;;;20.13;18.05;;;18.20;90.60;;;;;;5079489;28;20047;-82
2021/04/29 09:52:04;;;;;;;21.35;18.77;;;18.10;90.70;;;;;;5070332;28;20028;-82
2021/04/29 09:54:36;;;;;;;22.50;19.20;;;18.00;90.90;;;;;;5077607;28;20052;-83
2021/04/29 09:57:09;;;;;;;21.02;18.13;;;18.00;91.00;;;;;;5090958;28;20032;-81
2021/04/29 09:59:43;;;;;;;20.20;18.10;;;17.90;91.00;;;;;;5103034;28;20088;-82
2021/04/29 10:02:17;;;;;;;21.77;19.33;;;17.90;91.00;;;;;;5079345;28;20016;-85
2021/04/29 10:04:46;;;;;;;22.88;20.52;;;17.80;91.20;;;;;;5080551;28;20391;-86
2021/04/29 10:07:15;;;;;;;21.17;18.77;;;17.70;91.30;;;;;;5075692;28;20069;-83
2021/04/29 10:09:44;;;;;;;25.20;20.77;;;17.70;91.40;;;;;;5074122;28;20043;-83
2021/04/29 10:12:13;;;;;;;22.20;19.38;;;17.70;91.70;;;;;;5071308;28;20032;-84
2021/04/29 10:14:47;;;;;;;22.63;19.15;;;17.60;91.80;;;;;;5066935;28;20582;-82
2021/04/29 10:17:17;;;;;;;23.42;19.88;;;17.60;92.00;;;;;;5068449;28;20032;-78
2021/04/29 10:20:02;;;;;;;22.02;19.42;;;17.60;91.90;;;;;;5077055;28;20025;-82
2021/04/29 10:22:29;;;;;;;23.58;20.20;;;17.60;91.90;;;;;;5074414;28;20386;-83
2021/04/29 10:25:07;;;;;;;23.38;20.83;;;17.50;91.90;;;;;;5070093;28;20056;-85
2021/04/29 10:27:35;;;;;;;23.25;20.77;;;17.40;91.80;;;;;;5075882;28;20105;-81
2021/04/29 10:30:13;;;;;;;24.70;19.90;;;17.40;91.90;;;;;;5080467;28;20121;-84
2021/04/29 10:32:41;;;;;;;20.98;18.77;;;17.20;91.80;;;;;;5080438;28;20024;-84
2021/04/29 10:35:19;;;;;;;24.50;20.02;;;17.20;91.90;;;;;;5077813;28;20070;-84
2021/04/29 10:38:00;;;;;;;25.80;19.73;;;17.20;92.00;;;;;;5060110;28;20082;-80
2021/04/29 10:40:45;;;;;;;26.92;19.38;;;17.20;92.00;;;;;;5068608;28;20066;-83
2021/04/29 10:43:12;;;;;;;24.70;20.77;;;17.10;92.20;;;;;;5081148;28;20031;-82
2021/04/29 10:45:51;;;;;;;22.98;20.50;;;17.10;92.00;;;;;;5084739;28;20437;-81
2021/04/29 10:48:18;;;;;;;25.08;21.63;;;17.00;92.10;;;;;;5073008;28;20045;-82
2021/04/29 10:50:48;;;;;;;26.90;22.60;;;17.00;92.20;;;;;;5071298;28;20924;-83
2021/04/29 10:53:31;;;;;;;26.85;22.92;;;16.90;92.70;;;;;;5074577;28;20101;-82
2021/04/29 10:56:00;;;;;;;24.25;21.42;;;16.80;92.90;;;;;;5070687;28;20028;-84
2021/04/29 10:58:27;;;;;;;25.15;21.73;;;16.80;92.60;;;;;;5076854;28;20065;-81
2021/04/29 11:01:19;;;;;;;24.35;20.90;;;16.80;92.90;;;;;;5064066;28;20151;-84
2021/04/29 11:03:52;;;;;;;24.95;21.52;;;16.80;92.70;;;;;;5060189;28;20481;-83
2021/04/29 11:06:24;;;;;;;27.38;23.60;;;16.80;92.60;;;;;;5065940;28;20056;-83
2021/04/29 11:08:54;;;;;;;27.58;21.58;;;16.60;92.80;;;;;;5068664;28;20092;-82
2021/04/29 11:11:34;;;;;;;25.25;20.77;;;16.50;93.00;;;;;;5065253;28;20059;-83
2021/04/29 11:14:15;;;;;;;24.63;22.02;;;16.50;92.80;;;;;;5066588;28;20494;-80
2021/04/29 11:16:53;;;;;;;23.33;21.02;;;16.50;92.80;;;;;;5071392;28;20035;-85
2021/04/29 11:19:40;;;;;;;26.08;22.88;;;16.50;93.00;;;;;;5083111;28;20024;-84
2021/04/29 11:22:34;;;;;;;33.38;23.98;;;16.50;93.40;;;;;;5068888;28;20024;-82
2021/04/29 11:25:02;;;;;;;25.10;22.52;;;16.40;93.40;;;;;;5071744;28;21624;-82
2021/04/29 11:27:35;;;;;;;25.73;22.85;;;16.40;93.30;;;;;;5072069;28;20052;-82
2021/04/29 11:30:06;;;;;;;25.92;21.00;;;16.40;93.50;;;;;;5067020;28;20036;-84
2021/04/29 11:32:36;;;;;;;23.58;21.08;;;16.30;93.30;;;;;;5066607;28;20031;-83
2021/04/29 11:35:27;;;;;;;23.95;21.20;;;16.20;93.30;;;;;;5068111;28;20033;-85
2021/04/29 11:37:57;;;;;;;28.17;21.70;;;16.20;92.90;;;;;;5066460;28;20025;-84
2021/04/29 11:40:29;;;;;;;27.63;21.52;;;16.10;92.90;;;;;;5072026;28;20040;-86
2021/04/29 11:42:58;;;;;;;22.90;19.80;;;16.00;92.90;;;;;;5072648;28;20035;-86
2021/04/29 11:45:30;;;;;;;27.15;21.30;;;16.00;92.90;;;;;;5069549;28;20038;-82
2021/04/29 11:48:02;;;;;;;24.40;21.38;;;16.00;93.20;;;;;;5077421;28;20136;-84
2021/04/29 11:50:44;;;;;;;22.40;19.98;;;15.90;93.30;;;;;;5067102;28;20039;-83
2021/04/29 11:53:16;;;;;;;24.10;18.55;;;15.90;92.90;;;;;;5074204;28;20407;-82
2021/04/29 11:56:05;;;;;;;22.40;19.92;;;15.80;93.10;;;;;;5073544;28;20016;-86
2021/04/29 11:58:34;;;;;;;20.80;18.70;;;15.80;93.00;;;;;;5073501;28;20063;-85
2021/04/29 12:01:02;;;;;;;21.88;19.50;;;15.70;92.90;;;;;;5089512;28;20390;-86
2021/04/29 12:03:31;;;;;;;20.70;18.50;;;15.70;93.00;;;;;;5069227;28;20060;-84
2021/04/29 12:05:59;;;;;;;21.63;19.38;;;15.70;93.20;;;;;;5060674;28;20093;-84
2021/04/29 12:08:32;;;;;;;21.33;19.13;;;15.60;93.00;;;;;;5068152;28;20124;-82
2021/04/29 12:11:12;;;;;;;21.73;19.58;;;15.50;93.40;;;;;;5073985;28;20097;-84
2021/04/29 12:13:52;;;;;;;24.40;19.65;;;15.50;93.00;;;;;;5070224;28;20107;-85
2021/04/29 12:16:23;;;;;;;21.75;19.35;;;15.40;93.10;;;;;;5075433;28;20031;-83
2021/04/29 12:18:53;;;;;;;23.30;19.15;;;15.40;93.30;;;;;;5068490;28;20035;-82
2021/04/29 12:21:23;;;;;;;23.80;20.35;;;15.30;93.20;;;;;;5069694;28;20024;-80
2021/04/29 12:24:01;;;;;;;23.73;21.23;;;15.30;93.20;;;;;;5073148;28;20020;-81
2021/04/29 12:26:39;;;;;;;25.35;21.25;;;15.30;93.50;;;;;;5070523;28;20016;-79
2021/04/29 12:29:12;;;;;;;22.65;20.23;;;15.20;93.90;;;;;;5069836;28;20032;-79
2021/04/29 12:32:01;;;;;;;21.90;19.42;;;15.20;93.70;;;;;;5068369;28;20045;-79
2021/04/29 12:34:29;;;;;;;23.50;20.33;;;15.20;93.60;;;;;;5066566;28;20028;-81
2021/04/29 12:37:02;;;;;;;23.52;19.73;;;15.10;93.40;;;;;;5078331;28;20020;-77
2021/04/29 12:39:33;;;;;;;24.70;21.60;;;15.10;93.50;;;;;;5065243;28;20473;-81
2021/04/29 12:42:07;;;;;;;25.08;20.55;;;15.10;93.80;;;;;;5065210;28;20044;-79
2021/04/29 12:45:01;;;;;;;23.90;19.83;;;15.10;93.70;;;;;;5063134;28;20028;-80
2021/04/29 12:47:30;;;;;;;20.17;17.92;;;15.00;93.70;;;;;;5073688;28;20039;-80
2021/04/29 12:49:59;;;;;;;21.15;18.20;;;14.90;93.90;;;;;;5080847;28;20090;-77